sensor_id;sensor_type;location;lat;lon;timestamp;temperature;humidity
21861;DHT22;11095;48.066;8.540;2023-03-14T00:02:10;7.70;99.90
21861;DHT22;11095;48.066;8.540;2023-03-14T00:04:36;7.70;99.90
21861;DHT22;11095;48.066;8.540;2023-03-14T00:07:02;7.60;99.90
21861;DHT22;11095;48.066;8.540;2023-03-14T00:09:28;7.60;99.90
21861;DHT22;11095;48.066;8.540;2023-03-14T00:11:55;7.50;99.90
21861;DHT22;11095;48.066;8.540;2023-03-14T00:14:21;7.50;99.90
21861;DHT22;11095;48.066;8.540;2023-03-14T00:16:47;7.50;99.90
21861;DHT22;11095;48.066;8.540;2023-03-14T00:19:12;7.40;99.90
21861;DHT22;11095;48.066;8.540;2023-03-14T00:21:38;7.40;99.90
21861;DHT22;11095;48.066;8.540;2023-03-14T00:24:04;7.40;99.90
21861;DHT22;11095;48.066;8.540;2023-03-14T00:26:29;7.40;99.90
21861;DHT22;11095;48.066;8.540;2023-03-14T00:28:55;7.40;99.90
21861;DHT22;11095;48.066;8.540;2023-03-14T00:31:21;7.40;99.90
21861;DHT22;11095;48.066;8.540;2023-03-14T00:33:47;7.40;99.90
21861;DHT22;11095;48.066;8.540;2023-03-14T00:36:17;7.40;99.90
21861;DHT22;11095;48.066;8.540;2023-03-14T00:38:44;7.40;99.90
21861;DHT22;11095;48.066;8.540;2023-03-14T00:41:13;7.40;99.90
21861;DHT22;11095;48.066;8.540;2023-03-14T00:43:39;7.40;99.90
21861;DHT22;11095;48.066;8.540;2023-03-14T00:46:05;7.40;99.90
21861;DHT22;11095;48.066;8.540;2023-03-14T00:48:31;7.40;99.90
21861;DHT22;11095;48.066;8.540;2023-03-14T00:50:56;7.40;99.90
21861;DHT22;11095;48.066;8.540;2023-03-14T00:53:22;7.40;99.90
21861;DHT22;11095;48.066;8.540;2023-03-14T00:55:48;7.40;99.90
21861;DHT22;11095;48.066;8.540;2023-03-14T00:58:15;7.40;99.90
21861;DHT22;11095;48.066;8.540;2023-03-14T01:00:42;7.40;99.90
21861;DHT22;11095;48.066;8.540;2023-03-14T01:03:08;7.30;99.90
21861;DHT22;11095;48.066;8.540;2023-03-14T01:05:34;7.30;99.90
21861;DHT22;11095;48.066;8.540;2023-03-14T01:08:00;7.30;99.90
21861;DHT22;11095;48.066;8.540;2023-03-14T01:10:26;7.30;99.90
21861;DHT22;11095;48.066;8.540;2023-03-14T01:12:52;7.30;99.90
21861;DHT22;11095;48.066;8.540;2023-03-14T01:15:17;7.30;99.90
21861;DHT22;11095;48.066;8.540;2023-03-14T01:17:43;7.20;99.90
21861;DHT22;11095;48.066;8.540;2023-03-14T01:20:11;7.30;99.90
21861;DHT22;11095;48.066;8.540;2023-03-14T01:22:38;7.20;99.90
21861;DHT22;11095;48.066;8.540;2023-03-14T01:25:10;7.20;99.90
21861;DHT22;11095;48.066;8.540;2023-03-14T01:27:37;7.20;99.90
21861;DHT22;11095;48.066;8.540;2023-03-14T01:30:03;7.20;99.90
21861;DHT22;11095;48.066;8.540;2023-03-14T01:32:29;7.20;99.90
21861;DHT22;11095;48.066;8.540;2023-03-14T01:34:55;7.20;99.90
21861;DHT22;11095;48.066;8.540;2023-03-14T01:37:20;7.20;99.90
21861;DHT22;11095;48.066;8.540;2023-03-14T01:39:49;7.20;99.90
21861;DHT22;11095;48.066;8.540;2023-03-14T01:42:15;7.20;99.90
21861;DHT22;11095;48.066;8.540;2023-03-14T01:44:55;7.20;99.90
21861;DHT22;11095;48.066;8.540;2023-03-14T01:47:22;7.20;99.90
21861;DHT22;11095;48.066;8.540;2023-03-14T01:49:56;7.20;99.90
21861;DHT22;11095;48.066;8.540;2023-03-14T01:52:31;7.20;99.90
21861;DHT22;11095;48.066;8.540;2023-03-14T01:55:25;7.10;99.90
21861;DHT22;11095;48.066;8.540;2023-03-14T01:58:01;7.10;99.90
21861;DHT22;11095;48.066;8.540;2023-03-14T02:00:28;7.10;99.90
21861;DHT22;11095;48.066;8.540;2023-03-14T02:02:58;7.10;99.90
21861;DHT22;11095;48.066;8.540;2023-03-14T02:05:35;7.10;99.90
21861;DHT22;11095;48.066;8.540;2023-03-14T02:08:04;7.10;99.90
21861;DHT22;11095;48.066;8.540;2023-03-14T02:10:32;7.10;99.90
21861;DHT22;11095;48.066;8.540;2023-03-14T02:13:02;7.10;99.90
21861;DHT22;11095;48.066;8.540;2023-03-14T02:15:28;7.10;99.90
21861;DHT22;11095;48.066;8.540;2023-03-14T02:17:55;7.10;99.90
21861;DHT22;11095;48.066;8.540;2023-03-14T02:20:53;7.10;99.90
21861;DHT22;11095;48.066;8.540;2023-03-14T02:23:29;7.10;99.90
21861;DHT22;11095;48.066;8.540;2023-03-14T02:26:02;7.00;99.90
21861;DHT22;11095;48.066;8.540;2023-03-14T02:28:29;7.00;99.90
21861;DHT22;11095;48.066;8.540;2023-03-14T02:30:55;7.00;99.90
21861;DHT22;11095;48.066;8.540;2023-03-14T02:33:21;7.00;99.90
21861;DHT22;11095;48.066;8.540;2023-03-14T02:35:56;7.00;99.90
21861;DHT22;11095;48.066;8.540;2023-03-14T02:40:48;7.10;99.90
21861;DHT22;11095;48.066;8.540;2023-03-14T02:43:13;7.00;99.90
21861;DHT22;11095;48.066;8.540;2023-03-14T02:45:40;7.00;99.90
21861;DHT22;11095;48.066;8.540;2023-03-14T02:48:11;7.00;99.90
21861;DHT22;11095;48.066;8.540;2023-03-14T02:50:37;7.00;99.90
21861;DHT22;11095;48.066;8.540;2023-03-14T02:53:03;7.00;99.90
21861;DHT22;11095;48.066;8.540;2023-03-14T02:55:29;6.90;99.90
21861;DHT22;11095;48.066;8.540;2023-03-14T02:57:55;6.90;99.90
21861;DHT22;11095;48.066;8.540;2023-03-14T03:00:21;6.80;99.90
21861;DHT22;11095;48.066;8.540;2023-03-14T03:02:46;6.80;99.90
21861;DHT22;11095;48.066;8.540;2023-03-14T03:05:12;6.80;99.90
21861;DHT22;11095;48.066;8.540;2023-03-14T03:07:38;6.80;99.90
21861;DHT22;11095;48.066;8.540;2023-03-14T03:10:04;6.70;99.90
21861;DHT22;11095;48.066;8.540;2023-03-14T03:12:30;6.70;99.90
21861;DHT22;11095;48.066;8.540;2023-03-14T03:14:55;6.70;99.90
21861;DHT22;11095;48.066;8.540;2023-03-14T03:17:21;6.70;99.90
21861;DHT22;11095;48.066;8.540;2023-03-14T03:19:46;6.60;99.90
21861;DHT22;11095;48.066;8.540;2023-03-14T03:22:12;6.60;99.90
21861;DHT22;11095;48.066;8.540;2023-03-14T03:24:37;6.70;99.90
21861;DHT22;11095;48.066;8.540;2023-03-14T03:27:03;6.70;99.90
21861;DHT22;11095;48.066;8.540;2023-03-14T03:29:29;6.70;99.90
21861;DHT22;11095;48.066;8.540;2023-03-14T03:31:55;6.60;99.90
21861;DHT22;11095;48.066;8.540;2023-03-14T03:34:21;6.60;99.90
21861;DHT22;11095;48.066;8.540;2023-03-14T03:36:47;6.60;99.90
21861;DHT22;11095;48.066;8.540;2023-03-14T03:39:12;6.60;99.90
21861;DHT22;11095;48.066;8.540;2023-03-14T03:41:38;6.60;99.90
21861;DHT22;11095;48.066;8.540;2023-03-14T03:44:04;6.60;99.90
21861;DHT22;11095;48.066;8.540;2023-03-14T03:46:31;6.60;99.90
21861;DHT22;11095;48.066;8.540;2023-03-14T03:48:59;6.60;99.90
21861;DHT22;11095;48.066;8.540;2023-03-14T03:51:25;6.60;99.90
21861;DHT22;11095;48.066;8.540;2023-03-14T03:53:51;6.70;99.90
21861;DHT22;11095;48.066;8.540;2023-03-14T03:56:17;6.70;99.90
21861;DHT22;11095;48.066;8.540;2023-03-14T03:58:43;6.70;99.90
21861;DHT22;11095;48.066;8.540;2023-03-14T04:01:09;6.70;99.90
21861;DHT22;11095;48.066;8.540;2023-03-14T04:03:36;6.70;99.90
21861;DHT22;11095;48.066;8.540;2023-03-14T04:06:08;6.70;99.90
21861;DHT22;11095;48.066;8.540;2023-03-14T04:08:34;6.70;99.90
21861;DHT22;11095;48.066;8.540;2023-03-14T04:11:01;6.80;99.90
21861;DHT22;11095;48.066;8.540;2023-03-14T04:13:27;6.80;99.90
21861;DHT22;11095;48.066;8.540;2023-03-14T04:15:54;6.80;99.90
21861;DHT22;11095;48.066;8.540;2023-03-14T04:18:20;6.80;99.90
21861;DHT22;11095;48.066;8.540;2023-03-14T04:20:54;6.80;99.90
21861;DHT22;11095;48.066;8.540;2023-03-14T04:23:21;6.80;99.90
21861;DHT22;11095;48.066;8.540;2023-03-14T04:25:49;6.80;99.90
21861;DHT22;11095;48.066;8.540;2023-03-14T04:28:14;6.80;99.90
21861;DHT22;11095;48.066;8.540;2023-03-14T04:30:40;6.80;99.90
21861;DHT22;11095;48.066;8.540;2023-03-14T04:33:05;6.90;99.90
21861;DHT22;11095;48.066;8.540;2023-03-14T04:35:32;6.90;99.90
21861;DHT22;11095;48.066;8.540;2023-03-14T04:37:58;6.90;99.90
21861;DHT22;11095;48.066;8.540;2023-03-14T04:40:24;6.90;99.90
21861;DHT22;11095;48.066;8.540;2023-03-14T04:42:50;6.90;99.90
21861;DHT22;11095;48.066;8.540;2023-03-14T04:45:16;6.90;99.90
21861;DHT22;11095;48.066;8.540;2023-03-14T04:47:41;7.00;99.90
21861;DHT22;11095;48.066;8.540;2023-03-14T04:50:08;7.00;99.90
21861;DHT22;11095;48.066;8.540;2023-03-14T04:52:34;7.00;99.90
21861;DHT22;11095;48.066;8.540;2023-03-14T04:54:59;7.00;99.90
21861;DHT22;11095;48.066;8.540;2023-03-14T04:57:25;7.00;99.90
21861;DHT22;11095;48.066;8.540;2023-03-14T04:59:50;7.00;99.90
21861;DHT22;11095;48.066;8.540;2023-03-14T05:02:16;7.00;99.90
21861;DHT22;11095;48.066;8.540;2023-03-14T05:04:42;7.00;99.90
21861;DHT22;11095;48.066;8.540;2023-03-14T05:07:07;7.00;99.90
21861;DHT22;11095;48.066;8.540;2023-03-14T05:09:33;6.90;99.90
21861;DHT22;11095;48.066;8.540;2023-03-14T05:11:58;6.90;99.90
21861;DHT22;11095;48.066;8.540;2023-03-14T05:14:24;6.80;99.90
21861;DHT22;11095;48.066;8.540;2023-03-14T05:16:50;6.80;99.90
21861;DHT22;11095;48.066;8.540;2023-03-14T05:19:15;6.80;99.90
21861;DHT22;11095;48.066;8.540;2023-03-14T05:21:41;6.80;99.90
21861;DHT22;11095;48.066;8.540;2023-03-14T05:24:07;6.70;99.90
21861;DHT22;11095;48.066;8.540;2023-03-14T05:26:32;6.70;99.90
21861;DHT22;11095;48.066;8.540;2023-03-14T05:28:58;6.70;99.90
21861;DHT22;11095;48.066;8.540;2023-03-14T05:31:23;6.80;99.90
21861;DHT22;11095;48.066;8.540;2023-03-14T05:33:49;6.80;99.90
21861;DHT22;11095;48.066;8.540;2023-03-14T05:36:15;6.80;99.90
21861;DHT22;11095;48.066;8.540;2023-03-14T05:38:40;6.80;99.90
21861;DHT22;11095;48.066;8.540;2023-03-14T05:41:06;6.80;99.90
21861;DHT22;11095;48.066;8.540;2023-03-14T05:43:32;6.80;99.90
21861;DHT22;11095;48.066;8.540;2023-03-14T05:45:57;6.80;99.90
21861;DHT22;11095;48.066;8.540;2023-03-14T05:48:23;6.80;99.90
21861;DHT22;11095;48.066;8.540;2023-03-14T05:50:55;6.80;99.90
21861;DHT22;11095;48.066;8.540;2023-03-14T05:53:21;6.70;99.90
21861;DHT22;11095;48.066;8.540;2023-03-14T05:55:46;6.60;99.90
21861;DHT22;11095;48.066;8.540;2023-03-14T05:58:12;6.60;99.90
21861;DHT22;11095;48.066;8.540;2023-03-14T06:00:37;6.60;99.90
21861;DHT22;11095;48.066;8.540;2023-03-14T06:03:03;6.50;99.90
21861;DHT22;11095;48.066;8.540;2023-03-14T06:05:29;6.50;99.90
21861;DHT22;11095;48.066;8.540;2023-03-14T06:07:54;6.50;99.90
21861;DHT22;11095;48.066;8.540;2023-03-14T06:10:20;6.60;99.90
21861;DHT22;11095;48.066;8.540;2023-03-14T06:12:45;6.60;99.90
21861;DHT22;11095;48.066;8.540;2023-03-14T06:15:11;6.60;99.90
21861;DHT22;11095;48.066;8.540;2023-03-14T06:17:37;6.60;99.90
21861;DHT22;11095;48.066;8.540;2023-03-14T06:20:02;6.60;99.90
21861;DHT22;11095;48.066;8.540;2023-03-14T06:22:28;6.70;99.90
21861;DHT22;11095;48.066;8.540;2023-03-14T06:24:54;6.60;99.90
21861;DHT22;11095;48.066;8.540;2023-03-14T06:27:19;6.60;99.90
21861;DHT22;11095;48.066;8.540;2023-03-14T06:29:45;6.60;99.90
21861;DHT22;11095;48.066;8.540;2023-03-14T06:32:10;6.60;99.90
21861;DHT22;11095;48.066;8.540;2023-03-14T06:34:36;6.60;99.90
21861;DHT22;11095;48.066;8.540;2023-03-14T06:37:03;6.60;99.90
21861;DHT22;11095;48.066;8.540;2023-03-14T06:39:29;6.70;99.90
21861;DHT22;11095;48.066;8.540;2023-03-14T06:41:55;7.10;99.90
21861;DHT22;11095;48.066;8.540;2023-03-14T06:44:21;7.70;99.90
21861;DHT22;11095;48.066;8.540;2023-03-14T06:46:46;8.80;99.90
21861;DHT22;11095;48.066;8.540;2023-03-14T06:49:12;10.30;99.90
21861;DHT22;11095;48.066;8.540;2023-03-14T06:51:38;11.80;99.90
21861;DHT22;11095;48.066;8.540;2023-03-14T06:54:03;13.20;99.90
21861;DHT22;11095;48.066;8.540;2023-03-14T06:56:29;14.20;99.90
21861;DHT22;11095;48.066;8.540;2023-03-14T06:58:55;14.60;99.90
21861;DHT22;11095;48.066;8.540;2023-03-14T07:01:24;15.30;99.90
21861;DHT22;11095;48.066;8.540;2023-03-14T07:03:50;16.20;99.90
21861;DHT22;11095;48.066;8.540;2023-03-14T07:06:16;16.70;99.90
21861;DHT22;11095;48.066;8.540;2023-03-14T07:08:41;17.30;99.90
21861;DHT22;11095;48.066;8.540;2023-03-14T07:11:08;18.10;99.90
21861;DHT22;11095;48.066;8.540;2023-03-14T07:13:35;18.90;99.90
21861;DHT22;11095;48.066;8.540;2023-03-14T07:16:00;19.70;99.90
21861;DHT22;11095;48.066;8.540;2023-03-14T07:18:26;20.00;99.90
21861;DHT22;11095;48.066;8.540;2023-03-14T07:20:52;19.90;99.90
21861;DHT22;11095;48.066;8.540;2023-03-14T07:23:17;19.90;99.90
21861;DHT22;11095;48.066;8.540;2023-03-14T07:25:43;19.50;99.90
21861;DHT22;11095;48.066;8.540;2023-03-14T07:28:08;19.50;99.90
21861;DHT22;11095;48.066;8.540;2023-03-14T07:30:34;19.50;99.90
21861;DHT22;11095;48.066;8.540;2023-03-14T07:33:00;19.40;99.90
21861;DHT22;11095;48.066;8.540;2023-03-14T07:35:26;19.20;99.90
21861;DHT22;11095;48.066;8.540;2023-03-14T07:37:51;19.00;99.90
21861;DHT22;11095;48.066;8.540;2023-03-14T07:40:17;19.20;99.90
21861;DHT22;11095;48.066;8.540;2023-03-14T07:42:43;19.40;99.90
21861;DHT22;11095;48.066;8.540;2023-03-14T07:45:10;19.10;99.90
21861;DHT22;11095;48.066;8.540;2023-03-14T07:47:36;18.70;99.90
21861;DHT22;11095;48.066;8.540;2023-03-14T07:50:03;18.80;99.90
21861;DHT22;11095;48.066;8.540;2023-03-14T07:52:29;19.30;99.90
21861;DHT22;11095;48.066;8.540;2023-03-14T07:54:54;19.10;99.90
21861;DHT22;11095;48.066;8.540;2023-03-14T07:57:20;18.50;99.90
21861;DHT22;11095;48.066;8.540;2023-03-14T07:59:45;18.90;99.90
21861;DHT22;11095;48.066;8.540;2023-03-14T08:02:12;19.00;99.90
21861;DHT22;11095;48.066;8.540;2023-03-14T08:04:39;19.10;99.90
21861;DHT22;11095;48.066;8.540;2023-03-14T08:07:05;19.30;99.90
21861;DHT22;11095;48.066;8.540;2023-03-14T08:09:31;19.10;99.90
21861;DHT22;11095;48.066;8.540;2023-03-14T08:11:56;17.90;99.90
21861;DHT22;11095;48.066;8.540;2023-03-14T08:14:22;16.40;99.90
21861;DHT22;11095;48.066;8.540;2023-03-14T08:16:51;15.20;99.90
21861;DHT22;11095;48.066;8.540;2023-03-14T08:19:16;14.10;99.90
21861;DHT22;11095;48.066;8.540;2023-03-14T08:21:42;12.90;99.90
21861;DHT22;11095;48.066;8.540;2023-03-14T08:24:08;12.10;99.90
21861;DHT22;11095;48.066;8.540;2023-03-14T08:26:33;11.70;99.90
21861;DHT22;11095;48.066;8.540;2023-03-14T08:28:59;11.30;99.90
21861;DHT22;11095;48.066;8.540;2023-03-14T08:31:25;11.00;99.90
21861;DHT22;11095;48.066;8.540;2023-03-14T08:33:50;10.80;99.90
21861;DHT22;11095;48.066;8.540;2023-03-14T08:36:20;10.50;99.90
21861;DHT22;11095;48.066;8.540;2023-03-14T08:38:45;10.30;99.90
21861;DHT22;11095;48.066;8.540;2023-03-14T08:41:11;10.10;99.90
21861;DHT22;11095;48.066;8.540;2023-03-14T08:43:37;10.10;99.90
21861;DHT22;11095;48.066;8.540;2023-03-14T08:46:03;9.90;99.90
21861;DHT22;11095;48.066;8.540;2023-03-14T08:48:30;9.80;99.90
21861;DHT22;11095;48.066;8.540;2023-03-14T08:51:16;9.70;99.90
21861;DHT22;11095;48.066;8.540;2023-03-14T08:53:42;9.80;99.90
21861;DHT22;11095;48.066;8.540;2023-03-14T08:56:08;9.90;99.90
21861;DHT22;11095;48.066;8.540;2023-03-14T08:58:36;10.00;99.90
21861;DHT22;11095;48.066;8.540;2023-03-14T09:01:07;10.40;99.90
21861;DHT22;11095;48.066;8.540;2023-03-14T09:03:33;10.50;99.90
21861;DHT22;11095;48.066;8.540;2023-03-14T09:06:07;10.50;99.90
21861;DHT22;11095;48.066;8.540;2023-03-14T09:08:33;10.50;99.90
21861;DHT22;11095;48.066;8.540;2023-03-14T09:10:59;10.40;99.90
21861;DHT22;11095;48.066;8.540;2023-03-14T09:13:25;10.50;99.90
21861;DHT22;11095;48.066;8.540;2023-03-14T09:15:54;10.40;99.90
21861;DHT22;11095;48.066;8.540;2023-03-14T09:18:20;10.50;99.90
21861;DHT22;11095;48.066;8.540;2023-03-14T09:20:46;10.50;99.90
21861;DHT22;11095;48.066;8.540;2023-03-14T09:23:12;10.60;99.90
21861;DHT22;11095;48.066;8.540;2023-03-14T09:25:37;10.40;99.90
21861;DHT22;11095;48.066;8.540;2023-03-14T09:28:04;10.40;99.90
21861;DHT22;11095;48.066;8.540;2023-03-14T09:30:30;10.40;99.90
21861;DHT22;11095;48.066;8.540;2023-03-14T09:32:55;10.70;99.90
21861;DHT22;11095;48.066;8.540;2023-03-14T09:35:22;11.40;99.90
21861;DHT22;11095;48.066;8.540;2023-03-14T09:37:48;12.20;99.90
21861;DHT22;11095;48.066;8.540;2023-03-14T09:40:18;12.40;99.90
21861;DHT22;11095;48.066;8.540;2023-03-14T09:42:51;12.60;99.90
21861;DHT22;11095;48.066;8.540;2023-03-14T09:45:25;12.70;99.90
21861;DHT22;11095;48.066;8.540;2023-03-14T09:47:52;12.40;99.90
21861;DHT22;11095;48.066;8.540;2023-03-14T09:50:18;12.20;99.90
21861;DHT22;11095;48.066;8.540;2023-03-14T09:52:46;12.00;99.90
21861;DHT22;11095;48.066;8.540;2023-03-14T09:55:18;11.90;99.90
21861;DHT22;11095;48.066;8.540;2023-03-14T09:57:47;11.80;99.90
21861;DHT22;11095;48.066;8.540;2023-03-14T10:00:21;11.70;99.90
21861;DHT22;11095;48.066;8.540;2023-03-14T10:05:42;11.30;99.90
21861;DHT22;11095;48.066;8.540;2023-03-14T10:08:11;11.10;99.90
21861;DHT22;11095;48.066;8.540;2023-03-14T10:10:37;10.90;99.90
21861;DHT22;11095;48.066;8.540;2023-03-14T10:13:24;10.80;99.90
21861;DHT22;11095;48.066;8.540;2023-03-14T10:16:03;10.70;99.90
21861;DHT22;11095;48.066;8.540;2023-03-14T10:18:30;10.70;99.90
21861;DHT22;11095;48.066;8.540;2023-03-14T10:21:28;10.80;99.90
21861;DHT22;11095;48.066;8.540;2023-03-14T10:23:55;10.70;99.90
21861;DHT22;11095;48.066;8.540;2023-03-14T10:26:34;10.80;99.90
21861;DHT22;11095;48.066;8.540;2023-03-14T10:29:18;10.90;99.90
21861;DHT22;11095;48.066;8.540;2023-03-14T10:31:53;10.90;99.90
21861;DHT22;11095;48.066;8.540;2023-03-14T10:34:33;10.90;99.90
21861;DHT22;11095;48.066;8.540;2023-03-14T10:39:42;10.70;99.90
21861;DHT22;11095;48.066;8.540;2023-03-14T10:44:46;10.20;99.90
21861;DHT22;11095;48.066;8.540;2023-03-14T10:47:19;10.00;99.90
21861;DHT22;11095;48.066;8.540;2023-03-14T10:49:45;9.80;99.90
21861;DHT22;11095;48.066;8.540;2023-03-14T10:54:47;9.30;99.90
21861;DHT22;11095;48.066;8.540;2023-03-14T10:57:13;8.90;99.90
21861;DHT22;11095;48.066;8.540;2023-03-14T10:59:41;8.70;99.90
21861;DHT22;11095;48.066;8.540;2023-03-14T11:02:14;8.40;99.90
21861;DHT22;11095;48.066;8.540;2023-03-14T11:12:57;8.10;99.90
21861;DHT22;11095;48.066;8.540;2023-03-14T11:26:35;8.70;99.90
21861;DHT22;11095;48.066;8.540;2023-03-14T11:31:44;8.70;99.90
21861;DHT22;11095;48.066;8.540;2023-03-14T11:34:17;8.80;99.90
21861;DHT22;11095;48.066;8.540;2023-03-14T11:39:24;8.90;99.90
21861;DHT22;11095;48.066;8.540;2023-03-14T11:41:52;8.80;99.90
21861;DHT22;11095;48.066;8.540;2023-03-14T11:44:20;8.70;99.90
21861;DHT22;11095;48.066;8.540;2023-03-14T11:46:50;8.50;99.90
21861;DHT22;11095;48.066;8.540;2023-03-14T11:49:31;8.50;99.90
21861;DHT22;11095;48.066;8.540;2023-03-14T11:52:04;8.40;99.90
21861;DHT22;11095;48.066;8.540;2023-03-14T11:54:42;8.30;99.90
21861;DHT22;11095;48.066;8.540;2023-03-14T11:57:14;8.30;99.90
21861;DHT22;11095;48.066;8.540;2023-03-14T11:59:50;8.30;99.90
21861;DHT22;11095;48.066;8.540;2023-03-14T12:02:25;8.40;99.90
21861;DHT22;11095;48.066;8.540;2023-03-14T12:10:43;8.60;99.90
21861;DHT22;11095;48.066;8.540;2023-03-14T12:13:12;8.50;99.90
21861;DHT22;11095;48.066;8.540;2023-03-14T12:15:58;8.40;99.90
21861;DHT22;11095;48.066;8.540;2023-03-14T12:18:34;8.20;99.90
21861;DHT22;11095;48.066;8.540;2023-03-14T12:21:05;7.90;99.90
21861;DHT22;11095;48.066;8.540;2023-03-14T12:23:42;7.80;99.90
21861;DHT22;11095;48.066;8.540;2023-03-14T12:28:38;7.80;99.90
21861;DHT22;11095;48.066;8.540;2023-03-14T12:34:03;7.80;99.90
21861;DHT22;11095;48.066;8.540;2023-03-14T12:37:33;7.80;99.90
21861;DHT22;11095;48.066;8.540;2023-03-14T12:44:49;8.00;99.90
21861;DHT22;11095;48.066;8.540;2023-03-14T12:49:50;8.20;99.90
21861;DHT22;11095;48.066;8.540;2023-03-14T12:55:06;8.10;99.90
21861;DHT22;11095;48.066;8.540;2023-03-14T12:57:45;8.20;99.90
21861;DHT22;11095;48.066;8.540;2023-03-14T13:02:44;8.20;99.90
21861;DHT22;11095;48.066;8.540;2023-03-14T13:05:22;8.20;99.90
21861;DHT22;11095;48.066;8.540;2023-03-14T13:10:31;7.80;99.90
21861;DHT22;11095;48.066;8.540;2023-03-14T13:15:45;7.80;99.90
21861;DHT22;11095;48.066;8.540;2023-03-14T13:18:23;8.00;99.90
21861;DHT22;11095;48.066;8.540;2023-03-14T13:21:27;8.10;99.90
21861;DHT22;11095;48.066;8.540;2023-03-14T13:24:04;8.00;99.90
21861;DHT22;11095;48.066;8.540;2023-03-14T13:26:39;7.80;99.90
21861;DHT22;11095;48.066;8.540;2023-03-14T13:29:21;8.00;99.90
21861;DHT22;11095;48.066;8.540;2023-03-14T13:31:52;7.80;99.90
21861;DHT22;11095;48.066;8.540;2023-03-14T13:34:18;8.00;99.90
21861;DHT22;11095;48.066;8.540;2023-03-14T13:36:44;7.90;99.90
21861;DHT22;11095;48.066;8.540;2023-03-14T13:39:17;7.70;99.90
21861;DHT22;11095;48.066;8.540;2023-03-14T13:41:43;7.50;99.90
21861;DHT22;11095;48.066;8.540;2023-03-14T13:47:02;7.20;99.90
21861;DHT22;11095;48.066;8.540;2023-03-14T13:49:30;7.20;99.90
21861;DHT22;11095;48.066;8.540;2023-03-14T13:51:58;7.20;99.90
21861;DHT22;11095;48.066;8.540;2023-03-14T13:54:26;7.20;99.90
21861;DHT22;11095;48.066;8.540;2023-03-14T13:57:06;7.00;99.90
21861;DHT22;11095;48.066;8.540;2023-03-14T13:59:34;6.80;99.90
21861;DHT22;11095;48.066;8.540;2023-03-14T14:02:12;6.80;99.90
21861;DHT22;11095;48.066;8.540;2023-03-14T14:04:38;6.90;99.90
21861;DHT22;11095;48.066;8.540;2023-03-14T14:07:09;7.10;99.90
21861;DHT22;11095;48.066;8.540;2023-03-14T14:09:39;7.00;99.90
21861;DHT22;11095;48.066;8.540;2023-03-14T14:12:28;7.10;99.90
21861;DHT22;11095;48.066;8.540;2023-03-14T14:15:07;7.20;99.90
21861;DHT22;11095;48.066;8.540;2023-03-14T14:17:43;7.10;99.90
21861;DHT22;11095;48.066;8.540;2023-03-14T14:20:19;7.10;99.90
21861;DHT22;11095;48.066;8.540;2023-03-14T14:22:46;6.90;99.90
21861;DHT22;11095;48.066;8.540;2023-03-14T14:25:15;7.00;99.90
21861;DHT22;11095;48.066;8.540;2023-03-14T14:27:43;7.00;99.90
21861;DHT22;11095;48.066;8.540;2023-03-14T14:32:46;7.00;99.90
21861;DHT22;11095;48.066;8.540;2023-03-14T14:35:25;6.80;99.90
21861;DHT22;11095;48.066;8.540;2023-03-14T14:37:52;6.80;99.90
21861;DHT22;11095;48.066;8.540;2023-03-14T14:40:23;6.80;99.90
21861;DHT22;11095;48.066;8.540;2023-03-14T14:42:49;6.90;99.90
21861;DHT22;11095;48.066;8.540;2023-03-14T14:45:27;7.10;99.90
21861;DHT22;11095;48.066;8.540;2023-03-14T14:48:06;7.30;99.90
21861;DHT22;11095;48.066;8.540;2023-03-14T14:50:36;7.40;99.90
21861;DHT22;11095;48.066;8.540;2023-03-14T14:55:56;7.30;99.90
21861;DHT22;11095;48.066;8.540;2023-03-14T14:58:28;7.30;99.90
21861;DHT22;11095;48.066;8.540;2023-03-14T15:03:46;7.30;99.90
21861;DHT22;11095;48.066;8.540;2023-03-14T15:06:14;7.20;99.90
21861;DHT22;11095;48.066;8.540;2023-03-14T15:08:42;7.20;99.90
21861;DHT22;11095;48.066;8.540;2023-03-14T15:11:18;7.10;99.90
21861;DHT22;11095;48.066;8.540;2023-03-14T15:13:50;7.00;99.90
21861;DHT22;11095;48.066;8.540;2023-03-14T15:16:27;7.00;99.90
21861;DHT22;11095;48.066;8.540;2023-03-14T15:18:55;7.10;99.90
21861;DHT22;11095;48.066;8.540;2023-03-14T15:21:22;7.10;99.90
21861;DHT22;11095;48.066;8.540;2023-03-14T15:23:48;7.20;99.90
21861;DHT22;11095;48.066;8.540;2023-03-14T15:26:16;7.40;99.90
21861;DHT22;11095;48.066;8.540;2023-03-14T15:28:42;7.70;99.90
21861;DHT22;11095;48.066;8.540;2023-03-14T15:31:10;8.00;99.90
21861;DHT22;11095;48.066;8.540;2023-03-14T15:33:36;8.10;99.90
21861;DHT22;11095;48.066;8.540;2023-03-14T15:36:02;8.10;99.90
21861;DHT22;11095;48.066;8.540;2023-03-14T15:38:28;8.00;99.90
21861;DHT22;11095;48.066;8.540;2023-03-14T15:40:54;7.80;99.90
21861;DHT22;11095;48.066;8.540;2023-03-14T15:43:20;7.50;99.90
21861;DHT22;11095;48.066;8.540;2023-03-14T15:45:46;7.40;99.90
21861;DHT22;11095;48.066;8.540;2023-03-14T15:48:15;7.40;99.90
21861;DHT22;11095;48.066;8.540;2023-03-14T15:50:41;7.40;99.90
21861;DHT22;11095;48.066;8.540;2023-03-14T15:53:07;7.30;99.90
21861;DHT22;11095;48.066;8.540;2023-03-14T15:55:33;7.10;99.90
21861;DHT22;11095;48.066;8.540;2023-03-14T15:57:58;7.00;99.90
21861;DHT22;11095;48.066;8.540;2023-03-14T16:00:24;6.90;99.90
21861;DHT22;11095;48.066;8.540;2023-03-14T16:02:50;7.00;99.90
21861;DHT22;11095;48.066;8.540;2023-03-14T16:05:16;7.10;99.90
21861;DHT22;11095;48.066;8.540;2023-03-14T16:07:44;7.20;99.90
21861;DHT22;11095;48.066;8.540;2023-03-14T16:10:11;7.30;99.90
21861;DHT22;11095;48.066;8.540;2023-03-14T16:12:37;7.30;99.90
21861;DHT22;11095;48.066;8.540;2023-03-14T16:15:03;7.30;99.90
21861;DHT22;11095;48.066;8.540;2023-03-14T16:17:29;7.10;99.90
21861;DHT22;11095;48.066;8.540;2023-03-14T16:19:54;7.00;99.90
21861;DHT22;11095;48.066;8.540;2023-03-14T16:22:20;6.80;99.90
21861;DHT22;11095;48.066;8.540;2023-03-14T16:24:46;6.60;99.90
21861;DHT22;11095;48.066;8.540;2023-03-14T16:27:11;6.50;99.90
21861;DHT22;11095;48.066;8.540;2023-03-14T16:29:37;6.50;99.90
21861;DHT22;11095;48.066;8.540;2023-03-14T16:32:03;6.40;99.90
21861;DHT22;11095;48.066;8.540;2023-03-14T16:34:28;6.40;99.90
21861;DHT22;11095;48.066;8.540;2023-03-14T16:36:54;6.40;99.90
21861;DHT22;11095;48.066;8.540;2023-03-14T16:39:20;6.40;99.90
21861;DHT22;11095;48.066;8.540;2023-03-14T16:41:46;6.40;99.90
21861;DHT22;11095;48.066;8.540;2023-03-14T16:44:11;6.40;99.90
21861;DHT22;11095;48.066;8.540;2023-03-14T16:46:37;6.40;99.90
21861;DHT22;11095;48.066;8.540;2023-03-14T16:49:04;6.30;99.90
21861;DHT22;11095;48.066;8.540;2023-03-14T16:51:29;6.30;99.90
21861;DHT22;11095;48.066;8.540;2023-03-14T16:53:55;6.20;99.90
21861;DHT22;11095;48.066;8.540;2023-03-14T16:56:21;6.20;99.90
21861;DHT22;11095;48.066;8.540;2023-03-14T16:58:48;6.10;99.90
21861;DHT22;11095;48.066;8.540;2023-03-14T17:01:16;6.10;99.90
21861;DHT22;11095;48.066;8.540;2023-03-14T17:03:46;6.00;99.90
21861;DHT22;11095;48.066;8.540;2023-03-14T17:06:14;5.90;99.90
21861;DHT22;11095;48.066;8.540;2023-03-14T17:08:40;5.90;99.90